Hauptseite
METAR-TAF:

METAR-TAF

Flughäfen :

Piacenza, Italien

Militärflugplatz Piacenza

Breite: 44-55N, Länge: 009-44E, Höhe: 134 m

Beobachtung

Neuester Wetterbericht von vor 1 Stunde und 0 Minuten, um 08:55 UTC
Wind 7 kt aus Ost/Südost, variierte zwischen Ost/Nordost und Süd/Südost
Temperatur 20°C
Luftfeuchtigkeit 73%
Luftdruck 1028 hPa
Sichtweite 10 km oder mehr
keine Wolken unter 1500 m und keine Kumulonimbus oder Gewitterwolken

METAR: LIMS 190855Z 11007KT 060V160 CAVOK 20/15 Q1028 RMK SKC VIS MIN 9999 WIND THR30 10008KT BLU

Zeit: 11:55 (09:55 UTC)


TAF: fehlend

Wetterbeobachtungen und Prognosen von mehr als 4000 Flughäfen (METAR und TAF Bericht).

Die verfügbaren Stationen werden durch gelbe und rote Markierungen auf der Karte dargestellt.

Führen Sie die Maus auf sie, um den Namen der Station zu sehen.

Darauf klicken, um die Beobachtung von Wetterbeobachtungen und Prognosen zu sehen.

Um die Karte zu ändern : klicken Sie auf den grünen Tasten mit einem schwarzen Kreuz Zum Vergrößern, auf den grünen Button mit einem Gedankenstrich zu verkleinern, oder auf die grünen Pfeile für benachbarte Karten.


METAR-TAF: